sensor_id;sensor_type;location;lat;lon;timestamp;P1;durP1;ratioP1;P2;durP2;ratioP2
12373;SDS011;6251;51.762;8.660;2023-06-10T01:14:17;9.30;;;8.40;;
12373;SDS011;6251;51.762;8.660;2023-06-10T02:46:55;8.75;;;7.95;;
12373;SDS011;6251;51.762;8.660;2023-06-10T02:56:56;8.85;;;8.05;;
12373;SDS011;6251;51.762;8.660;2023-06-10T04:07:58;9.13;;;8.23;;
12373;SDS011;6251;51.762;8.660;2023-06-10T04:17:59;8.77;;;7.97;;
12373;SDS011;6251;51.762;8.660;2023-06-10T04:28:02;10.35;;;8.20;;
12373;SDS011;6251;51.762;8.660;2023-06-10T04:38:02;7.40;;;6.70;;
12373;SDS011;6251;51.762;8.660;2023-06-10T04:48:04;7.60;;;6.90;;
12373;SDS011;6251;51.762;8.660;2023-06-10T04:58:05;8.77;;;7.40;;
12373;SDS011;6251;51.762;8.660;2023-06-10T05:08:06;8.95;;;7.68;;
12373;SDS011;6251;51.762;8.660;2023-06-10T05:18:06;7.55;;;6.90;;
12373;SDS011;6251;51.762;8.660;2023-06-10T05:28:07;8.18;;;6.40;;
12373;SDS011;6251;51.762;8.660;2023-06-10T05:38:09;5.80;;;5.22;;
12373;SDS011;6251;51.762;8.660;2023-06-10T05:48:10;5.20;;;4.80;;
12373;SDS011;6251;51.762;8.660;2023-06-10T05:58:11;5.07;;;4.60;;
12373;SDS011;6251;51.762;8.660;2023-06-10T06:08:12;4.90;;;4.40;;
12373;SDS011;6251;51.762;8.660;2023-06-10T06:18:13;4.68;;;4.22;;
12373;SDS011;6251;51.762;8.660;2023-06-10T06:28:14;4.32;;;4.00;;
12373;SDS011;6251;51.762;8.660;2023-06-10T06:38:15;4.50;;;4.10;;
12373;SDS011;6251;51.762;8.660;2023-06-10T06:48:15;5.28;;;3.87;;
12373;SDS011;6251;51.762;8.660;2023-06-10T06:58:16;4.70;;;4.30;;
12373;SDS011;6251;51.762;8.660;2023-06-10T07:08:16;4.57;;;4.28;;
12373;SDS011;6251;51.762;8.660;2023-06-10T07:18:17;3.83;;;3.45;;
12373;SDS011;6251;51.762;8.660;2023-06-10T07:28:17;4.03;;;3.60;;
12373;SDS011;6251;51.762;8.660;2023-06-10T07:38:18;3.60;;;3.40;;
12373;SDS011;6251;51.762;8.660;2023-06-10T07:48:19;5.80;;;4.05;;
12373;SDS011;6251;51.762;8.660;2023-06-10T07:58:19;4.18;;;3.67;;
12373;SDS011;6251;51.762;8.660;2023-06-10T08:08:21;4.57;;;3.70;;
12373;SDS011;6251;51.762;8.660;2023-06-10T08:18:22;4.00;;;3.63;;
12373;SDS011;6251;51.762;8.660;2023-06-10T08:28:22;4.03;;;3.62;;
12373;SDS011;6251;51.762;8.660;2023-06-10T08:38:23;3.83;;;3.53;;
12373;SDS011;6251;51.762;8.660;2023-06-10T08:48:24;4.53;;;4.22;;
12373;SDS011;6251;51.762;8.660;2023-06-10T08:58:26;4.12;;;3.80;;
12373;SDS011;6251;51.762;8.660;2023-06-10T09:08:28;4.00;;;3.70;;
12373;SDS011;6251;51.762;8.660;2023-06-10T09:18:28;5.37;;;3.92;;
12373;SDS011;6251;51.762;8.660;2023-06-10T09:28:30;5.30;;;4.28;;
12373;SDS011;6251;51.762;8.660;2023-06-10T09:38:31;5.03;;;4.62;;
12373;SDS011;6251;51.762;8.660;2023-06-10T09:48:40;4.78;;;4.30;;
12373;SDS011;6251;51.762;8.660;2023-06-10T09:58:45;4.78;;;4.32;;
12373;SDS011;6251;51.762;8.660;2023-06-10T10:08:47;5.62;;;5.12;;
12373;SDS011;6251;51.762;8.660;2023-06-10T10:18:59;6.75;;;6.00;;
12373;SDS011;6251;51.762;8.660;2023-06-10T10:29:12;5.30;;;4.90;;
12373;SDS011;6251;51.762;8.660;2023-06-10T10:39:19;5.47;;;5.00;;
12373;SDS011;6251;51.762;8.660;2023-06-10T10:49:20;5.12;;;4.72;;
12373;SDS011;6251;51.762;8.660;2023-06-10T10:59:23;5.25;;;4.57;;
12373;SDS011;6251;51.762;8.660;2023-06-10T11:09:27;4.70;;;4.30;;
12373;SDS011;6251;51.762;8.660;2023-06-10T11:19:35;4.62;;;4.30;;
12373;SDS011;6251;51.762;8.660;2023-06-10T11:29:38;5.80;;;5.40;;
12373;SDS011;6251;51.762;8.660;2023-06-10T11:39:38;7.57;;;6.95;;
12373;SDS011;6251;51.762;8.660;2023-06-10T11:49:39;5.33;;;4.83;;
12373;SDS011;6251;51.762;8.660;2023-06-10T11:59:40;14.40;;;13.10;;
12373;SDS011;6251;51.762;8.660;2023-06-10T12:09:41;5.65;;;5.25;;
12373;SDS011;6251;51.762;8.660;2023-06-10T12:19:41;8.70;;;5.20;;
12373;SDS011;6251;51.762;8.660;2023-06-10T12:29:50;5.60;;;5.22;;
12373;SDS011;6251;51.762;8.660;2023-06-10T12:39:53;5.40;;;5.10;;
12373;SDS011;6251;51.762;8.660;2023-06-10T12:49:54;5.37;;;5.05;;
12373;SDS011;6251;51.762;8.660;2023-06-10T12:59:55;5.25;;;4.95;;
12373;SDS011;6251;51.762;8.660;2023-06-10T13:10:00;5.68;;;5.30;;
12373;SDS011;6251;51.762;8.660;2023-06-10T13:20:04;5.53;;;4.95;;
12373;SDS011;6251;51.762;8.660;2023-06-10T13:30:06;5.70;;;5.20;;
12373;SDS011;6251;51.762;8.660;2023-06-10T13:40:08;6.32;;;5.68;;
12373;SDS011;6251;51.762;8.660;2023-06-10T13:50:10;7.32;;;5.55;;
12373;SDS011;6251;51.762;8.660;2023-06-10T14:00:10;5.60;;;5.13;;
12373;SDS011;6251;51.762;8.660;2023-06-10T14:10:11;5.75;;;5.43;;
12373;SDS011;6251;51.762;8.660;2023-06-10T14:20:12;5.50;;;5.03;;
12373;SDS011;6251;51.762;8.660;2023-06-10T14:30:13;5.93;;;5.40;;
12373;SDS011;6251;51.762;8.660;2023-06-10T14:40:14;5.80;;;5.40;;
12373;SDS011;6251;51.762;8.660;2023-06-10T14:50:15;6.70;;;6.20;;
12373;SDS011;6251;51.762;8.660;2023-06-10T15:00:15;6.57;;;6.07;;
12373;SDS011;6251;51.762;8.660;2023-06-10T15:10:19;6.40;;;5.80;;
12373;SDS011;6251;51.762;8.660;2023-06-10T15:20:22;6.93;;;6.10;;
12373;SDS011;6251;51.762;8.660;2023-06-10T15:30:22;6.45;;;5.65;;
12373;SDS011;6251;51.762;8.660;2023-06-10T15:40:23;6.40;;;5.90;;
12373;SDS011;6251;51.762;8.660;2023-06-10T15:50:24;6.85;;;6.35;;
12373;SDS011;6251;51.762;8.660;2023-06-10T16:00:24;6.82;;;6.35;;
12373;SDS011;6251;51.762;8.660;2023-06-10T16:10:25;5.87;;;5.37;;
12373;SDS011;6251;51.762;8.660;2023-06-10T16:20:26;6.23;;;5.70;;
12373;SDS011;6251;51.762;8.660;2023-06-10T16:30:26;5.68;;;5.35;;
12373;SDS011;6251;51.762;8.660;2023-06-10T16:40:27;4.57;;;4.37;;
12373;SDS011;6251;51.762;8.660;2023-06-10T16:50:27;4.03;;;3.83;;
12373;SDS011;6251;51.762;8.660;2023-06-10T17:00:28;4.07;;;3.87;;
12373;SDS011;6251;51.762;8.660;2023-06-10T17:10:28;4.20;;;4.00;;
12373;SDS011;6251;51.762;8.660;2023-06-10T17:20:29;4.12;;;3.92;;
12373;SDS011;6251;51.762;8.660;2023-06-10T17:30:30;5.00;;;4.10;;
12373;SDS011;6251;51.762;8.660;2023-06-10T17:40:31;5.23;;;4.73;;
12373;SDS011;6251;51.762;8.660;2023-06-10T17:50:32;4.55;;;4.35;;
12373;SDS011;6251;51.762;8.660;2023-06-10T18:00:32;4.90;;;4.50;;
12373;SDS011;6251;51.762;8.660;2023-06-10T18:10:33;5.00;;;4.60;;
12373;SDS011;6251;51.762;8.660;2023-06-10T18:20:33;5.28;;;4.87;;
12373;SDS011;6251;51.762;8.660;2023-06-10T18:30:34;5.25;;;4.87;;
12373;SDS011;6251;51.762;8.660;2023-06-10T18:40:34;6.90;;;5.47;;
12373;SDS011;6251;51.762;8.660;2023-06-10T18:50:35;6.25;;;5.68;;
12373;SDS011;6251;51.762;8.660;2023-06-10T19:00:36;6.68;;;6.07;;
12373;SDS011;6251;51.762;8.660;2023-06-10T19:10:36;7.20;;;5.72;;
12373;SDS011;6251;51.762;8.660;2023-06-10T19:20:37;5.90;;;5.50;;
12373;SDS011;6251;51.762;8.660;2023-06-10T19:30:39;6.32;;;5.53;;
12373;SDS011;6251;51.762;8.660;2023-06-10T19:40:41;6.20;;;5.70;;
12373;SDS011;6251;51.762;8.660;2023-06-10T19:50:42;5.97;;;5.47;;
12373;SDS011;6251;51.762;8.660;2023-06-10T20:00:42;6.10;;;5.62;;
12373;SDS011;6251;51.762;8.660;2023-06-10T20:10:43;5.90;;;5.40;;
12373;SDS011;6251;51.762;8.660;2023-06-10T20:20:45;6.30;;;5.90;;
12373;SDS011;6251;51.762;8.660;2023-06-10T20:30:45;6.43;;;6.03;;
12373;SDS011;6251;51.762;8.660;2023-06-10T20:40:46;6.65;;;6.05;;
12373;SDS011;6251;51.762;8.660;2023-06-10T20:50:47;7.10;;;6.50;;
12373;SDS011;6251;51.762;8.660;2023-06-10T21:10:58;6.90;;;6.40;;
12373;SDS011;6251;51.762;8.660;2023-06-10T21:20:58;6.70;;;6.20;;
12373;SDS011;6251;51.762;8.660;2023-06-10T21:30:59;7.70;;;6.65;;
12373;SDS011;6251;51.762;8.660;2023-06-10T21:41:02;7.47;;;6.87;;
12373;SDS011;6251;51.762;8.660;2023-06-10T21:51:02;6.80;;;6.30;;
12373;SDS011;6251;51.762;8.660;2023-06-10T22:01:03;6.10;;;5.70;;
12373;SDS011;6251;51.762;8.660;2023-06-10T22:11:04;6.43;;;5.93;;
12373;SDS011;6251;51.762;8.660;2023-06-10T22:21:05;6.18;;;5.68;;
12373;SDS011;6251;51.762;8.660;2023-06-10T22:31:05;6.60;;;6.10;;
12373;SDS011;6251;51.762;8.660;2023-06-10T22:41:07;7.15;;;6.47;;
12373;SDS011;6251;51.762;8.660;2023-06-10T22:51:08;7.10;;;6.60;;
12373;SDS011;6251;51.762;8.660;2023-06-10T23:01:08;7.23;;;6.63;;
12373;SDS011;6251;51.762;8.660;2023-06-10T23:11:10;7.28;;;6.72;;
